Time;durP1;ratioP1;P1;durP2;ratioP2;P2;SDS_P1;SDS_P2;PMS_P1;PMS_P2;Temp;Humidity;BMP_temperature;BMP_pressure;BME280_temperature;BME280_humidity;BME280_pressure;Samples;Min_cycle;Max_cycle;Signal;HPM_P1;HPM_P2
2023/05/07 00:01:05;;;;;;;6.10;4.82;;;;;;;15.00;83.18;98564.75;5002092;28;103402;-81
2023/05/07 00:03:33;;;;;;;6.05;4.70;;;;;;;15.17;82.28;98571.19;5006107;28;102715;-82
2023/05/07 00:06:04;;;;;;;4.83;4.33;;;;;;;15.40;80.50;98575.22;4992069;28;102794;-81
2023/05/07 00:08:32;;;;;;;7.57;5.65;;;;;;;15.22;81.87;98568.94;5003827;28;113791;-81
2023/05/07 00:11:00;;;;;;;5.37;4.30;;;;;;;15.35;81.47;98574.81;4992349;28;103101;-82
2023/05/07 00:13:30;;;;;;;7.17;5.63;;;;;;;14.85;83.83;98576.00;5005754;28;102740;-82
2023/05/07 00:15:59;;;;;;;5.77;5.10;;;;;;;15.07;83.34;98575.69;5007044;28;103212;-82
2023/05/07 00:18:27;;;;;;;5.30;4.80;;;;;;;14.98;83.76;98572.06;5002507;28;103333;-82
2023/05/07 00:20:55;;;;;;;6.30;5.60;;;;;;;15.08;83.37;98577.34;5004905;28;102749;-81
2023/05/07 00:23:24;;;;;;;6.07;5.47;;;;;;;15.12;83.03;98572.59;5005127;28;104022;-81
2023/05/07 00:25:54;;;;;;;6.27;5.30;;;;;;;15.23;82.89;98567.97;4996026;28;102839;-81
2023/05/07 00:28:21;;;;;;;5.70;5.20;;;;;;;15.07;83.10;98565.88;4993250;28;103544;-81
2023/05/07 00:30:49;;;;;;;5.37;4.87;;;;;;;15.05;84.18;98561.66;5005991;28;103816;-81
2023/05/07 00:33:20;;;;;;;7.63;5.10;;;;;;;15.14;82.71;98560.81;4986644;28;103616;-81
2023/05/07 00:35:48;;;;;;;7.23;4.93;;;;;;;15.01;83.62;98560.28;4997096;28;103486;-82
2023/05/07 00:38:16;;;;;;;5.43;4.93;;;;;;;15.15;82.62;98557.19;4998063;28;102976;-81
2023/05/07 00:40:45;;;;;;;4.13;3.73;;;;;;;15.23;81.73;98554.66;5005023;28;104288;-81
2023/05/07 00:43:13;;;;;;;5.73;4.97;;;;;;;15.21;81.41;98555.78;4981777;28;102791;-81
2023/05/07 00:45:41;;;;;;;7.23;4.60;;;;;;;15.19;82.17;98550.59;5003412;28;102793;-81
2023/05/07 00:48:09;;;;;;;6.43;5.30;;;;;;;14.86;83.82;98551.91;5013087;28;103377;-81
2023/05/07 00:50:38;;;;;;;5.50;5.00;;;;;;;14.92;84.16;98551.34;5002033;28;104206;-82
2023/05/07 00:53:07;;;;;;;6.17;5.20;;;;;;;15.02;82.80;98551.31;4989027;28;102677;-81
2023/05/07 00:55:36;;;;;;;6.17;5.53;;;;;;;14.44;86.28;98550.50;5013867;28;102650;-81
2023/05/07 00:58:05;;;;;;;8.17;5.00;;;;;;;14.59;86.23;98550.94;4988247;28;106163;-81
2023/05/07 01:00:33;;;;;;;5.73;5.17;;;;;;;14.77;84.44;98546.56;5009197;28;103122;-81
2023/05/07 01:03:01;;;;;;;5.30;4.80;;;;;;;14.35;86.07;98546.00;5005756;28;102680;-82
2023/05/07 01:05:30;;;;;;;4.63;4.20;;;;;;;14.50;86.21;98540.16;4990924;28;102817;-81
2023/05/07 01:08:02;;;;;;;4.93;4.07;;;;;;;14.75;84.53;98540.56;5006914;28;103291;-81
2023/05/07 01:10:31;;;;;;;4.63;4.23;;;;;;;14.66;84.86;98541.41;4973876;28;105961;-81
2023/05/07 01:13:01;;;;;;;4.40;4.00;;;;;;;14.46;85.78;98544.06;4999714;28;102783;-82
2023/05/07 01:15:29;;;;;;;4.43;3.73;;;;;;;14.58;84.59;98541.25;4981664;28;103053;-81
2023/05/07 01:17:57;;;;;;;4.87;4.17;;;;;;;14.45;85.06;98547.72;4974920;28;106246;-81
2023/05/07 01:20:32;;;;;;;4.97;3.93;;;;;;;14.61;84.47;98551.63;4990547;28;102778;-82
2023/05/07 01:23:03;;;;;;;4.23;3.73;;;;;;;14.76;82.81;98552.88;5001197;28;104416;-81
2023/05/07 01:25:31;;;;;;;4.40;3.90;;;;;;;14.81;82.59;98545.31;5007927;28;102756;-81
2023/05/07 01:28:02;;;;;;;5.73;4.30;;;;;;;14.44;84.61;98543.38;4991422;28;103264;-81
2023/05/07 01:30:35;;;;;;;4.97;3.90;;;;;;;14.47;85.49;98545.75;4976462;28;105481;-81
2023/05/07 01:33:09;;;;;;;5.60;4.20;;;;;;;14.52;84.83;98548.81;4989919;28;102791;-81
2023/05/07 01:35:44;;;;;;;4.40;4.00;;;;;;;14.72;83.49;98548.81;4990426;28;102782;-81
2023/05/07 01:38:14;;;;;;;4.57;4.17;;;;;;;14.22;86.42;98546.25;5001889;28;103365;-81
2023/05/07 01:40:42;;;;;;;5.03;4.00;;;;;;;14.36;86.42;98548.53;4999487;28;103219;-81
2023/05/07 01:43:11;;;;;;;4.20;3.80;;;;;;;14.35;86.04;98552.16;5001067;28;103189;-81
2023/05/07 01:45:41;;;;;;;3.60;3.17;;;;;;;14.44;86.00;98543.38;4976503;28;105121;-81
2023/05/07 01:48:10;;;;;;;4.73;3.63;;;;;;;14.18;86.79;98541.31;5004889;28;104215;-81
2023/05/07 01:50:39;;;;;;;4.87;4.00;;;;;;;14.15;86.82;98538.94;5013351;28;113438;-81
2023/05/07 01:53:07;;;;;;;4.97;4.00;;;;;;;14.35;86.07;98536.22;5003384;28;102718;-81
2023/05/07 01:55:37;;;;;;;6.33;3.60;;;;;;;14.62;84.12;98537.34;4991342;28;102750;-81
2023/05/07 01:58:05;;;;;;;5.67;3.70;;;;;;;14.54;84.64;98534.56;4979667;28;103874;-81
2023/05/07 02:00:33;;;;;;;4.43;3.77;;;;;;;14.52;85.03;98538.19;4996546;28;103395;-81
2023/05/07 02:03:01;;;;;;;3.30;3.00;;;;;;;14.64;83.76;98540.72;5010442;28;102798;-81
2023/05/07 02:05:40;;;;;;;4.30;3.90;;;;;;;14.69;83.71;98541.97;4995863;28;103013;-81
2023/05/07 02:08:34;;;;;;;5.63;4.43;;;;;;;14.69;83.60;98543.78;5005617;28;104008;-81
2023/05/07 02:11:04;;;;;;;4.27;3.80;;;;;;;14.70;83.78;98545.47;4992920;28;104824;-80
2023/05/07 02:13:33;;;;;;;4.47;3.60;;;;;;;14.73;83.61;98547.84;4975657;28;102666;-81
2023/05/07 02:16:02;;;;;;;6.63;5.10;;;;;;;14.29;86.05;98542.03;5005653;28;102883;-81
2023/05/07 02:18:30;;;;;;;5.77;5.27;;;;;;;14.18;87.34;98550.13;5003471;28;103846;-80
2023/05/07 02:20:58;;;;;;;5.17;4.67;;;;;;;14.17;88.22;98537.00;4978762;28;105929;-81
2023/05/07 02:23:26;;;;;;;5.30;4.70;;;;;;;14.32;86.94;98544.47;4992404;28;102763;-81
2023/05/07 02:25:54;;;;;;;5.70;4.10;;;;;;;14.34;87.10;98545.16;5001790;28;102784;-81
2023/05/07 02:28:23;;;;;;;3.87;3.47;;;;;;;14.48;86.52;98546.59;4971864;28;106065;-81
2023/05/07 02:31:00;;;;;;;3.77;3.47;;;;;;;14.70;84.41;98545.47;5007872;28;103209;-81
2023/05/07 02:33:30;;;;;;;3.97;3.57;;;;;;;14.78;83.54;98538.47;4995031;28;102702;-81
2023/05/07 02:36:07;;;;;;;5.87;4.33;;;;;;;14.69;84.30;98549.94;4996702;28;102841;-81
2023/05/07 02:38:38;;;;;;;4.20;3.80;;;;;;;14.38;86.32;98541.25;4998039;28;103325;-81
2023/05/07 02:41:06;;;;;;;4.70;4.20;;;;;;;14.34;86.53;98544.34;4984207;28;104589;-80
2023/05/07 02:43:35;;;;;;;4.50;3.93;;;;;;;14.30;86.36;98538.41;4973616;28;102659;-80
2023/05/07 02:46:04;;;;;;;4.60;4.10;;;;;;;14.41;84.83;98546.28;4994746;28;102754;-80
2023/05/07 02:48:35;;;;;;;4.00;3.60;;;;;;;14.30;85.35;98543.72;4991058;28;103434;-80
2023/05/07 02:51:05;;;;;;;4.53;4.00;;;;;;;13.89;87.86;98543.94;5006845;28;103273;-81
2023/05/07 02:53:34;;;;;;;4.93;4.10;;;;;;;14.21;86.78;98533.91;4982831;28;104333;-81
2023/05/07 02:56:02;;;;;;;4.17;3.77;;;;;;;14.09;86.43;98539.50;4976262;28;102839;-80
2023/05/07 02:58:30;;;;;;;4.17;3.77;;;;;;;14.02;87.18;98535.69;5005022;28;104359;-81
2023/05/07 03:01:01;;;;;;;4.27;3.87;;;;;;;14.14;86.38;98538.13;4984281;28;103220;-80
2023/05/07 03:03:42;;;;;;;3.50;3.20;;;;;;;14.22;85.16;98532.13;4973979;28;102732;-80
2023/05/07 03:06:10;;;;;;;4.40;4.00;;;;;;;14.03;84.86;98535.56;5002179;28;103003;-81
2023/05/07 03:08:38;;;;;;;4.80;4.30;;;;;;;13.66;88.07;98537.97;4992346;28;106918;-81
2023/05/07 03:11:06;;;;;;;5.40;4.73;;;;;;;13.71;87.76;98529.59;4988236;28;103469;-80
2023/05/07 03:13:34;;;;;;;4.50;4.10;;;;;;;13.31;90.63;98522.44;4989035;28;102989;-80
2023/05/07 03:16:03;;;;;;;6.27;4.93;;;;;;;13.26;91.16;98524.66;5006450;28;102860;-81
2023/05/07 03:18:31;;;;;;;5.10;4.60;;;;;;;13.61;89.46;98524.28;4973766;28;105772;-80
2023/05/07 03:20:59;;;;;;;6.13;5.20;;;;;;;13.56;88.58;98520.34;4993952;28;103728;-80
2023/05/07 03:23:27;;;;;;;6.50;5.17;;;;;;;13.35;90.19;98517.72;4996640;28;102729;-80
2023/05/07 03:25:55;;;;;;;6.13;4.77;;;;;;;13.44;90.50;98521.41;4975560;28;102858;-80
2023/05/07 03:28:23;;;;;;;5.67;5.07;;;;;;;13.55;88.93;98523.97;5003942;28;103871;-80
2023/05/07 03:30:56;;;;;;;4.87;4.37;;;;;;;13.60;88.35;98527.03;4992497;28;104010;-80
2023/05/07 03:33:27;;;;;;;6.23;4.40;;;;;;;13.73;86.78;98525.84;4987058;28;103152;-80
2023/05/07 03:35:55;;;;;;;6.30;4.87;;;;;;;13.57;87.58;98522.00;4986224;28;102928;-80
2023/05/07 03:38:25;;;;;;;4.40;4.10;;;;;;;13.58;88.22;98521.88;4991335;28;115053;-80
2023/05/07 03:40:54;;;;;;;5.13;4.63;;;;;;;13.58;87.00;98527.19;4994718;28;106373;-80
2023/05/07 03:43:22;;;;;;;5.30;4.80;;;;;;;13.46;87.82;98527.41;4991595;28;102864;-80
2023/05/07 03:45:58;;;;;;;5.60;5.10;;;;;;;13.43;88.29;98522.34;4989333;28;106284;-80
2023/05/07 03:48:29;;;;;;;5.57;5.07;;;;;;;13.32;89.38;98523.28;5008043;28;103785;-80
2023/05/07 03:50:59;;;;;;;5.30;4.80;;;;;;;13.30;89.92;98526.06;4990740;28;105567;-80
2023/05/07 03:53:31;;;;;;;4.70;3.90;;;;;;;13.50;88.39;98531.47;5007551;28;102777;-80
2023/05/07 03:56:00;;;;;;;5.00;4.50;;;;;;;13.61;87.03;98534.03;4989727;28;103122;-80
2023/05/07 03:58:31;;;;;;;5.40;4.90;;;;;;;13.60;86.19;98537.66;4991412;28;103595;-70
2023/05/07 04:01:03;;;;;;;5.20;4.73;;;;;;;13.23;88.39;98545.28;5003942;28;103306;-69
2023/05/07 04:03:35;;;;;;;8.10;5.40;;;;;;;13.20;89.23;98537.59;5007080;28;103242;-69
2023/05/07 04:06:04;;;;;;;6.10;4.93;;;;;;;13.02;89.57;98532.03;4987872;28;103010;-69
2023/05/07 04:08:34;;;;;;;7.77;5.00;;;;;;;12.84;92.19;98530.06;5000672;28;112209;-69
2023/05/07 04:11:04;;;;;;;6.27;5.37;;;;;;;12.98;91.74;98533.25;4986205;28;103193;-70
2023/05/07 04:13:33;;;;;;;6.43;4.40;;;;;;;13.21;90.28;98537.47;5005057;28;102739;-70
2023/05/07 04:16:06;;;;;;;4.70;4.30;;;;;;;13.31;89.00;98538.34;4985400;28;105417;-69
2023/05/07 04:18:37;;;;;;;5.53;5.03;;;;;;;13.11;89.75;98539.22;4993193;28;103328;-69
2023/05/07 04:21:06;;;;;;;4.90;4.40;;;;;;;13.31;89.85;98543.66;4992249;28;103079;-69
2023/05/07 04:23:37;;;;;;;4.90;4.40;;;;;;;13.46;88.11;98544.16;4992456;28;102702;-69
2023/05/07 04:26:08;;;;;;;5.40;4.40;;;;;;;13.50;87.78;98542.09;4984067;28;104310;-69
2023/05/07 04:28:40;;;;;;;4.63;4.23;;;;;;;13.63;87.36;98553.31;4990172;28;103357;-70
2023/05/07 04:31:08;;;;;;;4.70;4.17;;;;;;;13.65;87.20;98559.31;4990718;28;103794;-69
2023/05/07 04:33:39;;;;;;;5.90;4.90;;;;;;;13.32;89.13;98563.09;4999611;28;102649;-69
2023/05/07 04:36:11;;;;;;;5.67;4.77;;;;;;;13.08;91.64;98558.03;4974313;28;102938;-70
2023/05/07 04:38:48;;;;;;;4.77;4.27;;;;;;;13.10;93.04;98556.13;5008006;28;104815;-69
2023/05/07 04:41:18;;;;;;;4.30;3.90;;;;;;;13.42;92.25;98555.19;5004478;28;103351;-70
2023/05/07 04:43:45;;;;;;;4.50;4.10;;;;;;;13.78;90.16;98557.31;4997340;28;102852;-70
2023/05/07 04:46:17;;;;;;;5.03;4.63;;;;;;;13.98;88.03;98559.03;4995315;27;102635;-70
2023/05/07 04:48:47;;;;;;;3.27;3.07;;;;;;;14.08;87.94;98551.94;4987629;28;102777;-69
2023/05/07 04:51:16;;;;;;;4.90;4.40;;;;;;;14.22;86.76;98567.50;4971065;28;103174;-69
2023/05/07 04:53:44;;;;;;;4.50;4.10;;;;;;;14.27;86.38;98565.25;4980746;28;103177;-71
2023/05/07 04:56:12;;;;;;;5.20;3.63;;;;;;;14.35;85.63;98573.41;4980253;28;104181;-71
2023/05/07 04:58:45;;;;;;;4.77;3.80;;;;;;;14.41;85.32;98570.22;4981456;28;109815;-74
2023/05/07 05:01:14;;;;;;;6.13;4.30;;;;;;;14.24;86.35;98572.66;4986262;28;111954;-71
2023/05/07 05:03:42;;;;;;;6.50;4.57;;;;;;;13.89;88.84;98565.97;4991348;28;102846;-71
2023/05/07 05:06:12;;;;;;;5.00;3.83;;;;;;;14.03;89.19;98570.09;4978192;28;102710;-71
2023/05/07 05:08:44;;;;;;;5.67;4.93;;;;;;;14.03;88.64;98577.22;4992409;28;107223;-70
2023/05/07 05:11:13;;;;;;;4.50;3.90;;;;;;;14.02;89.22;98571.06;4996678;28;109150;-71
2023/05/07 05:13:40;;;;;;;5.27;4.77;;;;;;;14.16;88.15;98576.00;4978870;28;102750;-70
2023/05/07 05:16:16;;;;;;;3.80;3.50;;;;;;;14.33;87.25;98579.84;4980078;28;102750;-70
2023/05/07 05:18:45;;;;;;;4.23;3.80;;;;;;;14.47;86.02;98577.66;4998097;28;104428;-68
2023/05/07 05:21:17;;;;;;;4.77;4.27;;;;;;;14.59;85.10;98588.16;4986710;28;103057;-70
2023/05/07 05:23:53;;;;;;;4.50;4.10;;;;;;;14.71;83.80;98592.38;4980267;28;103025;-69
2023/05/07 05:26:25;;;;;;;4.63;4.13;;;;;;;14.59;84.32;98598.78;4980932;28;103055;-71
2023/05/07 05:28:55;;;;;;;4.33;3.93;;;;;;;14.43;85.86;98591.31;4976174;28;104562;-70
2023/05/07 05:31:26;;;;;;;5.73;4.20;;;;;;;13.83;89.96;98589.59;4976457;28;115647;-69
2023/05/07 05:33:55;;;;;;;4.53;3.67;;;;;;;13.85;90.62;98585.84;4990212;28;102709;-69
2023/05/07 05:36:24;;;;;;;4.53;4.13;;;;;;;14.21;89.59;98580.91;4989058;28;102941;-68
2023/05/07 05:38:56;;;;;;;3.63;3.30;;;;;;;14.82;86.72;98581.59;5001739;28;103560;-69
2023/05/07 05:41:24;;;;;;;3.83;3.00;;;;;;;15.19;83.34;98589.66;4997478;28;103087;-69
2023/05/07 05:43:53;;;;;;;3.47;3.17;;;;;;;15.35;82.34;98590.78;4993772;28;102987;-69
2023/05/07 05:46:21;;;;;;;6.83;3.40;;;;;;;15.18;80.99;98591.50;4982860;28;102828;-68
2023/05/07 05:48:51;;;;;;;4.27;3.37;;;;;;;15.21;82.18;98604.53;4984204;28;103189;-69
2023/05/07 05:51:19;;;;;;;3.50;3.20;;;;;;;15.51;81.35;98601.69;4979067;28;103314;-69
2023/05/07 05:53:48;;;;;;;3.60;3.23;;;;;;;15.65;80.98;98598.56;4978381;28;102866;-68
2023/05/07 05:56:17;;;;;;;4.77;3.90;;;;;;;15.81;79.08;98591.78;4976386;28;103954;-69
2023/05/07 05:58:45;;;;;;;4.60;4.20;;;;;;;15.25;82.83;98594.41;4987231;28;103405;-69
2023/05/07 06:01:13;;;;;;;5.23;3.70;;;;;;;15.43;81.30;98593.56;4990186;28;103360;-68
2023/05/07 06:03:41;;;;;;;5.43;3.60;;;;;;;15.20;80.90;98596.66;4990839;28;102760;-69
2023/05/07 06:06:15;;;;;;;3.80;2.80;;;;;;;15.87;80.33;98602.69;4989117;28;102987;-69
2023/05/07 06:08:47;;;;;;;4.27;3.87;;;;;;;16.25;79.46;98597.16;4992709;28;104132;-69
2023/05/07 06:11:22;;;;;;;4.20;3.73;;;;;;;16.67;78.08;98602.81;4949211;28;105776;-70
2023/05/07 06:13:50;;;;;;;3.70;3.40;;;;;;;16.11;78.61;98607.50;5000930;28;102936;-69
2023/05/07 06:16:18;;;;;;;4.27;3.07;;;;;;;16.64;77.48;98591.66;4998538;28;102745;-69
2023/05/07 06:18:47;;;;;;;7.03;3.97;;;;;;;16.29;77.40;98604.88;4992101;28;108064;-69
2023/05/07 06:21:16;;;;;;;2.97;2.77;;;;;;;16.71;77.27;98604.22;4982774;28;103261;-69
2023/05/07 06:23:44;;;;;;;3.97;3.33;;;;;;;16.76;76.32;98604.59;4999551;28;102761;-75
2023/05/07 06:26:12;;;;;;;3.27;2.97;;;;;;;16.44;77.81;98612.22;4999332;28;103875;-75
2023/05/07 06:28:44;;;;;;;4.40;4.00;;;;;;;16.52;77.10;98604.31;4997562;28;103407;-75
2023/05/07 06:31:15;;;;;;;4.00;3.60;;;;;;;16.43;77.65;98613.22;4994168;28;103152;-75
2023/05/07 06:33:49;;;;;;;4.73;4.03;;;;;;;16.58;76.82;98614.41;4992961;28;103013;-75
2023/05/07 06:36:18;;;;;;;3.87;3.57;;;;;;;16.79;76.45;98611.44;4954458;28;102752;-77
2023/05/07 06:38:46;;;;;;;3.70;3.40;;;;;;;16.68;76.59;98617.84;4966151;28;117848;-76
2023/05/07 06:41:15;;;;;;;5.07;4.30;;;;;;;16.74;77.55;98609.25;4990938;28;103154;-76
2023/05/07 06:43:45;;;;;;;3.42;2.95;;;;;;;17.13;76.17;98619.59;4991354;28;102815;-76
2023/05/07 06:46:45;;;;;;;3.22;2.92;;;;;;;17.61;72.59;98614.69;4973226;28;102818;-77
2023/05/07 06:49:14;;;;;;;3.83;3.30;;;;;;;17.46;71.85;98607.38;4974831;28;104247;-76
2023/05/07 06:51:43;;;;;;;2.80;2.60;;;;;;;17.84;70.72;98601.63;4989088;28;103192;-76
2023/05/07 06:54:11;;;;;;;4.03;2.65;;;;;;;18.17;70.08;98608.81;4974139;28;102734;-76
2023/05/07 06:56:41;;;;;;;3.42;3.03;;;;;;;18.44;68.02;98597.84;4990638;28;104339;-75
2023/05/07 06:59:11;;;;;;;2.70;2.40;;;;;;;18.52;68.89;98592.59;4964405;28;103732;-75
2023/05/07 07:01:41;;;;;;;4.78;3.15;;;;;;;18.30;69.34;98593.13;4985901;28;106127;-75
2023/05/07 07:04:10;;;;;;;7.60;2.97;;;;;;;18.61;68.30;98598.78;4986679;28;102745;-74
2023/05/07 07:06:41;;;;;;;4.00;2.78;;;;;;;18.78;67.51;98608.50;4998769;28;103519;-74
2023/05/07 07:09:11;;;;;;;2.55;2.28;;;;;;;19.22;66.79;98601.03;4982862;28;104763;-74
2023/05/07 07:11:40;;;;;;;3.45;3.10;;;;;;;19.25;66.17;98602.53;4957978;28;106075;-75
2023/05/07 07:14:12;;;;;;;4.32;3.30;;;;;;;18.89;66.24;98597.50;4958551;28;102874;-75
2023/05/07 07:16:46;;;;;;;3.55;3.25;;;;;;;19.07;66.07;98600.88;4998800;28;102980;-75
2023/05/07 07:19:16;;;;;;;3.38;3.00;;;;;;;19.57;64.51;98587.31;4985310;28;103565;-78
2023/05/07 07:21:48;;;;;;;3.30;3.00;;;;;;;19.48;65.52;98591.00;4997100;28;103204;-82
2023/05/07 07:24:20;;;;;;;4.50;3.05;;;;;;;19.67;64.35;98587.13;4989238;28;102745;-83
2023/05/07 07:26:51;;;;;;;4.10;3.50;;;;;;;19.36;65.27;98586.97;4990974;28;103080;-82
2023/05/07 07:29:22;;;;;;;3.03;2.80;;;;;;;20.00;63.43;98591.38;4990515;28;103810;-80
2023/05/07 07:31:50;;;;;;;3.72;2.63;;;;;;;20.54;63.29;98588.84;5005603;28;103068;-80
2023/05/07 07:34:20;;;;;;;3.42;3.10;;;;;;;20.55;61.76;98588.66;5010543;28;102620;-81
2023/05/07 07:36:48;;;;;;;3.97;2.90;;;;;;;20.78;60.81;98583.31;4993632;28;102657;-81
2023/05/07 07:39:18;;;;;;;3.35;2.97;;;;;;;21.46;60.50;98591.38;4992264;28;103286;-81
2023/05/07 07:41:59;;;;;;;5.60;3.50;;;;;;;21.69;58.34;98588.63;4998182;28;103104;-80
2023/05/07 07:44:31;;;;;;;3.53;3.22;;;;;;;21.46;59.05;98593.22;4993139;28;102830;-80
2023/05/07 07:47:05;;;;;;;3.28;2.97;;;;;;;21.60;59.41;98587.03;4998133;28;102632;-78
2023/05/07 07:49:33;;;;;;;2.78;2.50;;;;;;;21.78;58.90;98592.91;4951980;28;106092;-82
2023/05/07 07:52:05;;;;;;;3.60;3.30;;;;;;;21.57;57.84;98590.94;4980237;28;105029;-82
2023/05/07 07:54:36;;;;;;;3.42;2.90;;;;;;;21.67;57.61;98596.06;4985943;28;102686;-79
2023/05/07 07:57:06;;;;;;;2.58;2.38;;;;;;;21.68;60.12;98603.06;5004507;28;103205;-79
2023/05/07 07:59:37;;;;;;;3.78;3.22;;;;;;;21.95;57.69;98592.56;4993534;28;103364;-80
2023/05/07 08:02:08;;;;;;;3.80;2.15;;;;;;;22.33;57.86;98596.00;4964562;28;103237;-75
2023/05/07 08:04:37;;;;;;;3.37;2.93;;;;;;;22.36;56.79;98592.91;4981611;28;103049;-74
2023/05/07 08:07:09;;;;;;;3.58;3.22;;;;;;;22.69;56.09;98592.50;4987323;28;103535;-74
2023/05/07 08:09:41;;;;;;;3.60;2.80;;;;;;;22.79;55.70;98599.25;4988321;28;104016;-74
2023/05/07 08:12:10;;;;;;;3.95;2.95;;;;;;;22.79;56.04;98593.03;4977308;28;106199;-73
2023/05/07 08:14:45;;;;;;;3.58;3.00;;;;;;;22.43;56.72;98593.81;4991083;28;102653;-76
2023/05/07 08:17:15;;;;;;;3.28;2.95;;;;;;;22.64;54.72;98595.78;5006162;28;102763;-76
2023/05/07 08:19:47;;;;;;;4.03;3.10;;;;;;;21.81;57.74;98598.72;4977609;28;104074;-77
2023/05/07 08:22:17;;;;;;;2.67;2.47;;;;;;;22.31;58.07;98595.34;4973177;28;106305;-75
2023/05/07 08:24:45;;;;;;;2.83;2.55;;;;;;;23.39;54.30;98585.38;4995938;28;102714;-75
2023/05/07 08:27:20;;;;;;;3.35;3.05;;;;;;;23.07;54.50;98585.88;4977051;28;103278;-74
2023/05/07 08:29:58;;;;;;;3.22;2.88;;;;;;;23.32;54.42;98589.84;4978018;28;103738;-76
2023/05/07 08:32:28;;;;;;;3.25;2.95;;;;;;;23.35;55.36;98584.06;5003614;28;103438;-75
2023/05/07 08:34:57;;;;;;;3.25;2.85;;;;;;;23.38;56.34;98594.47;4976009;28;102882;-80
2023/05/07 08:37:25;;;;;;;2.63;2.42;;;;;;;23.49;56.47;98580.50;4968132;28;102860;-76
2023/05/07 08:39:56;;;;;;;3.78;3.47;;;;;;;22.80;55.54;98583.94;4972979;28;105921;-75
2023/05/07 08:42:30;;;;;;;3.92;3.40;;;;;;;23.52;53.02;98590.03;5007479;28;103130;-77
2023/05/07 08:45:05;;;;;;;3.25;2.90;;;;;;;24.25;52.62;98581.41;4978411;28;102776;-81
2023/05/07 08:47:46;;;;;;;2.75;2.47;;;;;;;24.69;50.96;98584.50;4990912;28;102985;-72
2023/05/07 08:50:19;;;;;;;5.30;3.58;;;;;;;25.30;51.32;98587.97;4972714;28;103645;-74
2023/05/07 08:52:48;;;;;;;4.10;3.38;;;;;;;25.37;50.13;98598.78;4982890;28;105654;-78
2023/05/07 08:55:18;;;;;;;3.85;3.22;;;;;;;25.32;51.61;98590.44;4987791;28;102893;-77
2023/05/07 08:57:46;;;;;;;3.63;3.20;;;;;;;25.88;46.40;98591.72;4984985;28;103197;-72
2023/05/07 09:00:18;;;;;;;3.65;3.35;;;;;;;25.14;50.20;98590.25;4998810;28;103889;-71
2023/05/07 09:02:50;;;;;;;3.17;2.88;;;;;;;26.53;48.95;98589.88;4972027;28;106164;-77
2023/05/07 09:05:18;;;;;;;3.30;2.83;;;;;;;26.75;47.83;98583.09;5007203;28;102847;-76
2023/05/07 09:07:47;;;;;;;4.75;3.42;;;;;;;27.08;45.87;98582.13;4994168;28;102716;-77
2023/05/07 09:10:16;;;;;;;3.53;2.33;;;;;;;27.22;45.94;98584.53;4974266;28;104114;-84
2023/05/07 09:12:48;;;;;;;2.33;2.15;;;;;;;28.04;45.33;98583.47;5007826;28;103068;-78
2023/05/07 09:15:19;;;;;;;4.50;3.13;;;;;;;26.88;45.35;98583.09;4990273;28;102877;-77
2023/05/07 09:17:47;;;;;;;3.97;2.72;;;;;;;27.72;43.36;98579.97;4998915;28;102666;-77
2023/05/07 09:20:15;;;;;;;3.00;2.45;;;;;;;28.05;45.31;98564.22;5000237;28;103899;-77
2023/05/07 09:22:44;;;;;;;3.40;2.50;;;;;;;27.70;43.80;98557.66;5001032;28;103198;-77
2023/05/07 09:25:15;;;;;;;2.78;2.03;;;;;;;28.33;44.84;98565.56;4982359;28;103793;-76
2023/05/07 09:27:43;;;;;;;2.92;2.60;;;;;;;27.29;44.24;98568.19;5005736;28;102647;-77
2023/05/07 09:30:12;;;;;;;2.53;2.28;;;;;;;28.24;44.56;98556.09;4989055;28;103608;-76
2023/05/07 09:32:41;;;;;;;5.40;2.22;;;;;;;28.59;42.97;98552.50;4964897;28;105897;-76
2023/05/07 09:35:17;;;;;;;2.72;2.08;;;;;;;29.12;42.69;98552.59;4975980;28;102830;-76
2023/05/07 09:37:50;;;;;;;2.83;2.15;;;;;;;28.42;41.82;98558.78;4991892;28;102889;-74
2023/05/07 09:40:22;;;;;;;2.05;1.95;;;;;;;28.18;42.59;98553.19;4991498;28;103302;-78
2023/05/07 09:42:51;;;;;;;3.80;2.25;;;;;;;28.52;41.42;98553.66;4961006;28;104235;-74
2023/05/07 09:45:25;;;;;;;3.80;2.22;;;;;;;28.42;42.30;98553.34;4986277;28;103950;-77
2023/05/07 09:47:57;;;;;;;3.60;2.50;;;;;;;28.77;44.10;98546.22;4987565;28;103090;-75
2023/05/07 09:50:29;;;;;;;1.70;1.60;;;;;;;29.13;42.07;98546.09;4984423;28;106198;-72
2023/05/07 09:52:58;;;;;;;3.25;2.00;;;;;;;28.83;41.92;98548.00;4960599;28;103369;-75
2023/05/07 09:55:28;;;;;;;2.33;2.05;;;;;;;29.12;40.96;98541.72;4996329;28;102771;-79
2023/05/07 09:57:58;;;;;;;2.10;1.90;;;;;;;27.80;41.76;98549.81;4981793;28;102838;-78
2023/05/07 10:00:29;;;;;;;2.42;2.10;;;;;;;28.40;43.45;98550.03;4991762;28;103832;-73
2023/05/07 10:03:10;;;;;;;3.17;2.00;;;;;;;28.43;42.07;98549.56;5006207;28;103408;-73
2023/05/07 10:05:59;;;;;;;2.30;2.10;;;;;;;28.16;43.30;98544.44;4983492;28;102792;-74
2023/05/07 10:08:30;;;;;;;3.85;2.13;;;;;;;28.31;42.97;98545.94;4977044;28;104423;-79
2023/05/07 10:11:00;;;;;;;4.28;1.77;;;;;;;28.83;42.80;98534.41;4995515;28;103410;-74
2023/05/07 10:13:32;;;;;;;4.30;1.80;;;;;;;29.37;42.00;98527.09;4979225;28;103431;-74
2023/05/07 10:16:04;;;;;;;2.08;1.98;;;;;;;27.65;41.94;98532.25;5005314;28;102775;-74
2023/05/07 10:18:41;;;;;;;6.72;6.13;;;;;;;27.89;41.74;98528.66;4982799;28;102918;-77
2023/05/07 10:21:18;;;;;;;2.55;2.35;;;;;;;28.34;41.76;98523.78;4990958;28;113982;-74
2023/05/07 10:23:51;;;;;;;12.88;11.77;;;;;;;29.31;40.79;98520.72;4967617;28;105605;-78
2023/05/07 10:26:23;;;;;;;3.08;2.83;;;;;;;28.83;41.40;98523.53;4998076;28;103558;-75
2023/05/07 10:28:57;;;;;;;8.10;7.30;;;;;;;29.24;40.88;98518.13;4961686;28;102930;-76
2023/05/07 10:31:46;;;;;;;9.70;8.75;;;;;;;28.64;39.71;98519.22;4999430;28;103800;-78
2023/05/07 10:34:23;;;;;;;4.95;4.55;;;;;;;28.99;40.69;98512.00;4997847;28;103270;-75
2023/05/07 10:36:53;;;;;;;2.72;2.53;;;;;;;26.65;42.60;98512.31;4986382;28;102846;-73
2023/05/07 10:39:22;;;;;;;1.70;1.60;;;;;;;27.83;42.26;98505.97;4990277;28;103107;-74
2023/05/07 10:41:51;;;;;;;2.10;1.90;;;;;;;27.84;41.73;98504.91;4987570;28;103362;-73
2023/05/07 10:44:29;;;;;;;2.72;1.58;;;;;;;28.02;42.33;98502.19;4993981;28;107316;-75
2023/05/07 10:47:08;;;;;;;4.15;1.77;;;;;;;26.70;43.85;98504.34;5002615;28;102602;-74
2023/05/07 10:50:23;;;;;;;2.88;2.33;;;;;;;25.08;47.36;98509.97;4985706;28;102924;-74
2023/05/07 10:53:23;;;;;;;2.22;2.03;;;;;;;24.69;48.00;98513.44;4947465;28;107534;-75
2023/05/07 10:56:27;;;;;;;2.40;2.20;;;;;;;25.51;46.91;98505.84;4988343;28;104396;-74
2023/05/07 10:59:41;;;;;;;3.53;2.47;;;;;;;25.82;46.74;98508.69;4992049;28;102761;-76
2023/05/07 11:02:21;;;;;;;2.70;1.90;;;;;;;25.53;47.73;98492.94;4987613;28;102764;-75
2023/05/07 11:05:23;;;;;;;3.00;2.53;;;;;;;25.87;46.14;98502.63;4987877;28;109450;-75
2023/05/07 11:08:11;;;;;;;2.58;1.90;;;;;;;24.73;49.03;98510.09;4995765;28;103297;-75
2023/05/07 11:10:51;;;;;;;3.35;2.20;;;;;;;25.00;48.60;98512.88;4978850;28;102748;-74
2023/05/07 11:13:45;;;;;;;3.45;1.77;;;;;;;26.30;46.78;98502.94;4997986;28;103050;-75
2023/05/07 11:16:27;;;;;;;3.63;1.50;;;;;;;26.91;45.30;98498.63;4967098;28;114895;-75
2023/05/07 11:19:15;;;;;;;2.45;2.13;;;;;;;24.98;49.91;98501.47;4965156;28;105525;-74
2023/05/07 11:21:49;;;;;;;2.70;2.05;;;;;;;25.37;47.26;98501.47;4979023;28;102819;-77
2023/05/07 11:24:47;;;;;;;2.88;2.28;;;;;;;25.57;47.06;98496.84;4982314;28;103222;-76
2023/05/07 11:27:15;;;;;;;2.63;1.90;;;;;;;25.11;47.98;98501.47;4989469;28;103228;-75
2023/05/07 11:29:47;;;;;;;2.20;2.00;;;;;;;25.17;49.16;98503.34;4998805;28;103348;-75
2023/05/07 11:32:16;;;;;;;2.97;2.38;;;;;;;24.59;50.11;98492.22;4964526;28;102984;-75
2023/05/07 11:34:52;;;;;;;3.35;2.20;;;;;;;24.49;51.02;98485.53;4995094;28;102923;-75
2023/05/07 11:37:23;;;;;;;2.85;2.00;;;;;;;24.84;51.51;98483.56;4975971;28;116584;-75
2023/05/07 11:40:07;;;;;;;3.03;2.40;;;;;;;24.79;49.35;98482.31;4970874;28;103724;-74
2023/05/07 11:42:37;;;;;;;2.22;2.00;;;;;;;25.08;50.84;98485.66;4985318;28;102867;-75
2023/05/07 11:45:07;;;;;;;2.67;1.95;;;;;;;24.76;52.17;98481.84;4997894;28;102792;-75